Time;durP1;ratioP1;P1;durP2;ratioP2;P2;SDS_P1;SDS_P2;PMS_P1;PMS_P2;Temp;Humidity;BMP_temperature;BMP_pressure;BME280_temperature;BME280_humidity;BME280_pressure;Samples;Min_cycle;Max_cycle;Signal;HPM_P1;HPM_P2
2022/08/08 00:02:35;;;;;;;2.03;1.92;;;17.50;71.30;;;;;;4984025;28;20540;-62
2022/08/08 00:05:20;;;;;;;2.90;1.83;;;17.40;71.70;;;;;;4983349;28;20688;-62
2022/08/08 00:07:58;;;;;;;2.03;1.83;;;17.40;71.90;;;;;;4983988;28;20222;-62
2022/08/08 00:10:44;;;;;;;1.88;1.77;;;17.30;72.50;;;;;;4990935;28;20210;-62
2022/08/08 00:13:31;;;;;;;2.45;2.00;;;17.30;72.80;;;;;;5003322;28;20182;-62
2022/08/08 00:16:21;;;;;;;1.83;1.73;;;17.30;73.00;;;;;;4987657;28;20578;-62
2022/08/08 00:19:19;;;;;;;1.58;1.48;;;17.20;73.20;;;;;;4987756;28;20203;-62
2022/08/08 00:21:50;;;;;;;1.70;1.60;;;17.20;74.00;;;;;;4985221;28;20190;-62
2022/08/08 00:24:39;;;;;;;1.40;1.30;;;17.10;74.70;;;;;;4982535;28;20195;-62
2022/08/08 00:27:08;;;;;;;1.70;1.60;;;17.00;75.00;;;;;;4990162;28;20731;-62
2022/08/08 00:29:42;;;;;;;1.98;1.88;;;17.10;75.20;;;;;;4987249;28;20242;-62
2022/08/08 00:32:45;;;;;;;2.33;1.98;;;17.00;75.60;;;;;;4991216;28;20744;-62
2022/08/08 00:35:38;;;;;;;2.80;1.77;;;16.90;76.00;;;;;;4987670;28;20240;-63
2022/08/08 00:38:07;;;;;;;2.08;1.40;;;17.70;77.40;;;;;;4998784;28;20230;-63
2022/08/08 00:40:56;;;;;;;2.15;1.95;;;17.40;80.00;;;;;;4987974;28;20614;-63
2022/08/08 00:43:55;;;;;;;1.85;1.75;;;17.10;77.60;;;;;;4988730;28;20187;-63
2022/08/08 00:46:50;;;;;;;2.33;1.77;;;17.00;76.70;;;;;;4985908;28;20180;-63
2022/08/08 00:49:15;;;;;;;2.40;2.03;;;17.00;77.30;;;;;;4988772;28;20203;-62
2022/08/08 00:52:01;;;;;;;1.83;1.70;;;17.00;77.70;;;;;;4982897;28;20716;-63
2022/08/08 00:54:54;;;;;;;2.33;2.05;;;16.80;78.20;;;;;;4993690;28;20209;-62
2022/08/08 00:57:41;;;;;;;2.03;1.83;;;17.00;78.90;;;;;;4989451;28;20306;-62
2022/08/08 01:00:24;;;;;;;1.55;1.45;;;16.80;78.60;;;;;;4992543;28;20188;-62
2022/08/08 01:03:04;;;;;;;5.15;2.30;;;16.90;79.30;;;;;;4984329;28;20266;-62
2022/08/08 01:05:30;;;;;;;1.90;1.80;;;16.90;79.50;;;;;;4990100;28;20226;-62
2022/08/08 01:08:36;;;;;;;2.67;1.73;;;16.70;79.50;;;;;;4989917;28;20242;-62
2022/08/08 01:11:29;;;;;;;1.70;1.58;;;16.60;80.20;;;;;;4992284;28;20300;-62
2022/08/08 01:14:16;;;;;;;2.13;1.40;;;16.70;80.10;;;;;;4991552;28;20677;-63
2022/08/08 01:17:25;;;;;;;1.70;1.38;;;16.50;79.80;;;;;;4993141;28;20190;-62
2022/08/08 01:20:21;;;;;;;1.80;1.70;;;16.60;80.30;;;;;;4987422;28;20207;-62
2022/08/08 01:23:23;;;;;;;1.88;1.77;;;16.60;80.60;;;;;;4991068;28;20195;-62
2022/08/08 01:25:58;;;;;;;1.85;1.75;;;16.60;81.10;;;;;;4991368;28;20187;-62
2022/08/08 01:28:29;;;;;;;1.60;1.50;;;16.60;80.80;;;;;;4990963;28;20211;-62
2022/08/08 01:31:19;;;;;;;1.80;1.52;;;16.50;81.20;;;;;;4990759;28;20208;-62
2022/08/08 01:34:08;;;;;;;1.70;1.60;;;16.30;81.90;;;;;;4991368;28;20259;-62
2022/08/08 01:37:02;;;;;;;2.20;1.67;;;16.70;83.00;;;;;;4987560;28;20230;-62
2022/08/08 01:39:55;;;;;;;1.80;1.70;;;16.50;85.10;;;;;;4994970;28;20186;-62
2022/08/08 01:42:58;;;;;;;2.47;1.77;;;16.40;85.40;;;;;;4992630;28;20184;-62
2022/08/08 01:46:00;;;;;;;2.10;1.63;;;16.30;83.50;;;;;;4990031;28;20199;-62
2022/08/08 01:48:43;;;;;;;2.25;1.80;;;16.50;83.80;;;;;;4983174;28;20548;-62
2022/08/08 01:51:39;;;;;;;1.80;1.70;;;16.30;83.90;;;;;;4989326;28;20201;-62
2022/08/08 01:54:17;;;;;;;2.00;1.55;;;16.20;84.30;;;;;;4988889;28;20205;-62
2022/08/08 01:57:07;;;;;;;1.90;1.80;;;16.20;84.80;;;;;;4984423;28;20211;-62
2022/08/08 01:59:57;;;;;;;1.70;1.60;;;16.20;85.20;;;;;;4988265;28;20194;-62
2022/08/08 02:02:44;;;;;;;2.88;1.70;;;16.20;85.30;;;;;;4987011;28;20180;-62
2022/08/08 02:05:23;;;;;;;1.50;1.40;;;16.00;85.30;;;;;;4987117;28;20249;-62
2022/08/08 02:08:07;;;;;;;1.90;1.80;;;16.00;85.50;;;;;;4990582;28;20199;-61
2022/08/08 02:10:41;;;;;;;1.80;1.70;;;16.00;86.00;;;;;;4990589;28;20215;-61
2022/08/08 02:13:30;;;;;;;1.70;1.60;;;16.20;86.10;;;;;;4987873;28;20183;-61
2022/08/08 02:16:06;;;;;;;1.60;1.50;;;16.00;85.50;;;;;;4988238;28;20204;-61
2022/08/08 02:18:45;;;;;;;1.83;1.60;;;16.10;85.40;;;;;;4983098;28;20209;-61
2022/08/08 02:24:25;;;;;;;1.95;1.80;;;16.20;86.30;;;;;;4985238;28;20231;-61
2022/08/08 02:27:11;;;;;;;1.90;1.80;;;15.90;85.80;;;;;;4984886;28;20562;-61
2022/08/08 02:29:58;;;;;;;1.70;1.60;;;15.90;86.10;;;;;;4989215;28;20223;-61
2022/08/08 02:32:43;;;;;;;2.15;1.95;;;16.10;86.50;;;;;;4986697;28;20320;-61
2022/08/08 02:35:33;;;;;;;2.95;1.70;;;15.90;86.20;;;;;;4979676;28;20227;-61
2022/08/08 02:38:29;;;;;;;1.75;1.65;;;15.90;87.90;;;;;;4988552;28;20199;-61
2022/08/08 02:41:16;;;;;;;1.65;1.55;;;16.00;89.80;;;;;;4989750;28;20188;-61
2022/08/08 02:44:06;;;;;;;2.00;1.80;;;16.00;88.60;;;;;;4991368;28;20242;-61
2022/08/08 02:46:42;;;;;;;1.60;1.50;;;15.90;88.00;;;;;;4991517;28;20641;-61
2022/08/08 02:49:44;;;;;;;2.50;1.80;;;15.90;89.00;;;;;;5000292;28;20207;-61
2022/08/08 02:52:34;;;;;;;1.80;1.70;;;15.80;89.10;;;;;;4989578;28;20273;-61
2022/08/08 02:55:12;;;;;;;3.15;2.00;;;15.50;89.30;;;;;;4997231;28;20192;-61
2022/08/08 02:58:14;;;;;;;2.38;1.80;;;15.50;89.30;;;;;;4989656;28;20290;-61
2022/08/08 03:01:18;;;;;;;1.70;1.60;;;15.70;90.00;;;;;;4990254;28;20230;-62
2022/08/08 03:04:06;;;;;;;1.65;1.55;;;15.60;89.90;;;;;;4990896;28;20275;-61
2022/08/08 03:06:53;;;;;;;2.33;1.77;;;15.70;90.00;;;;;;4989479;28;20557;-61
2022/08/08 03:09:37;;;;;;;1.80;1.70;;;15.50;90.40;;;;;;4981158;28;20183;-61
2022/08/08 03:12:34;;;;;;;2.70;2.50;;;15.50;90.20;;;;;;4986279;28;20712;-61
2022/08/08 03:15:24;;;;;;;2.38;1.98;;;15.60;90.50;;;;;;4985296;28;20211;-61
2022/08/08 03:18:12;;;;;;;2.08;1.98;;;15.60;90.50;;;;;;4978555;28;20231;-61
2022/08/08 03:20:42;;;;;;;2.70;2.25;;;15.40;90.50;;;;;;4984446;28;20203;-61
2022/08/08 03:23:07;;;;;;;2.00;1.90;;;15.50;90.70;;;;;;4989336;28;20274;-61
2022/08/08 03:25:35;;;;;;;2.77;1.93;;;15.30;90.90;;;;;;4986480;28;20298;-61
2022/08/08 03:28:04;;;;;;;2.20;2.00;;;15.40;91.00;;;;;;4983278;28;20211;-62
2022/08/08 03:30:30;;;;;;;2.80;2.42;;;15.30;91.00;;;;;;4986220;28;20187;-62
2022/08/08 03:35:40;;;;;;;2.33;1.77;;;15.30;91.20;;;;;;4987246;28;20356;-62
2022/08/08 03:38:07;;;;;;;2.20;1.67;;;15.60;92.10;;;;;;4990125;28;20713;-62
2022/08/08 03:40:33;;;;;;;2.10;1.80;;;15.70;92.00;;;;;;4988694;28;20190;-61
2022/08/08 03:42:59;;;;;;;1.80;1.70;;;15.50;91.80;;;;;;4991160;28;20176;-61
2022/08/08 03:45:26;;;;;;;1.90;1.50;;;15.40;91.40;;;;;;4991346;28;20485;-61
2022/08/08 03:48:01;;;;;;;2.00;1.90;;;15.50;91.30;;;;;;4984284;28;20310;-62
2022/08/08 03:50:28;;;;;;;2.65;2.00;;;15.40;91.90;;;;;;4990868;28;20192;-61
2022/08/08 03:52:55;;;;;;;1.80;1.70;;;15.30;91.60;;;;;;4989276;28;20196;-62
2022/08/08 03:55:22;;;;;;;2.10;2.00;;;15.40;91.60;;;;;;4990001;28;20282;-61
2022/08/08 03:57:54;;;;;;;3.47;2.10;;;15.40;91.70;;;;;;4989724;28;20212;-61
2022/08/08 04:00:23;;;;;;;1.75;1.65;;;15.50;91.80;;;;;;4987732;28;20202;-62
2022/08/08 04:03:03;;;;;;;2.30;2.10;;;15.40;91.80;;;;;;4988840;28;20641;-62
2022/08/08 04:05:31;;;;;;;2.25;2.03;;;15.40;91.90;;;;;;4983800;28;20187;-62
2022/08/08 04:07:58;;;;;;;2.97;1.90;;;15.30;92.10;;;;;;4988110;28;20214;-62
2022/08/08 04:10:25;;;;;;;2.97;2.25;;;15.10;92.60;;;;;;4991180;28;20242;-62
2022/08/08 04:12:50;;;;;;;1.95;1.85;;;15.30;92.70;;;;;;4991216;28;20657;-61
2022/08/08 04:15:16;;;;;;;2.10;1.80;;;15.10;92.50;;;;;;4986329;28;20222;-62
2022/08/08 04:17:42;;;;;;;1.90;1.80;;;15.10;92.50;;;;;;4984092;28;20235;-62
2022/08/08 04:20:08;;;;;;;2.43;2.20;;;15.30;92.70;;;;;;4988269;28;20187;-61
2022/08/08 04:22:34;;;;;;;2.35;2.10;;;15.10;92.70;;;;;;4986782;28;20202;-61
2022/08/08 04:24:59;;;;;;;2.90;2.20;;;14.90;92.50;;;;;;4985017;28;20588;-62
2022/08/08 04:27:25;;;;;;;2.37;1.90;;;15.10;92.80;;;;;;4983374;28;20741;-62
2022/08/08 04:29:51;;;;;;;2.03;1.90;;;15.10;92.90;;;;;;4985893;28;20183;-62
2022/08/08 04:32:17;;;;;;;2.03;1.87;;;14.80;92.80;;;;;;4987445;28;20249;-62
2022/08/08 04:34:43;;;;;;;2.13;1.92;;;15.10;93.00;;;;;;4989078;28;20278;-62
2022/08/08 04:37:09;;;;;;;2.50;2.20;;;15.10;93.70;;;;;;4987701;28;20664;-62
2022/08/08 04:39:35;;;;;;;3.63;2.42;;;15.10;94.20;;;;;;4984263;28;20478;-61
2022/08/08 04:42:01;;;;;;;2.90;2.13;;;15.10;94.00;;;;;;4988605;28;20335;-61
2022/08/08 04:44:26;;;;;;;2.50;1.90;;;15.30;93.50;;;;;;4988984;28;20533;-61
2022/08/08 04:46:52;;;;;;;2.63;2.20;;;15.00;93.60;;;;;;4988137;28;20202;-62
2022/08/08 04:49:17;;;;;;;2.87;2.53;;;15.30;93.80;;;;;;4996226;28;20641;-62
2022/08/08 04:51:43;;;;;;;2.17;2.07;;;15.20;93.60;;;;;;4987706;28;20194;-62
2022/08/08 04:54:08;;;;;;;2.17;1.97;;;15.20;93.50;;;;;;4984837;28;20222;-62
2022/08/08 04:56:34;;;;;;;2.37;2.17;;;15.20;93.40;;;;;;4987733;28;20199;-62
2022/08/08 04:59:00;;;;;;;2.60;2.40;;;15.20;93.40;;;;;;4983650;28;20211;-63
2022/08/08 05:01:25;;;;;;;3.47;2.03;;;15.40;93.30;;;;;;5001065;28;20663;-62
2022/08/08 05:03:51;;;;;;;3.00;2.10;;;15.50;93.10;;;;;;4990238;28;20560;-62
2022/08/08 05:06:17;;;;;;;3.20;2.30;;;15.50;93.00;;;;;;4981208;28;20191;-63
2022/08/08 05:08:43;;;;;;;2.27;2.07;;;15.50;92.80;;;;;;4987913;28;20692;-62
2022/08/08 05:11:12;;;;;;;2.40;2.20;;;15.60;92.60;;;;;;4986245;28;20200;-62
2022/08/08 05:13:39;;;;;;;2.85;2.20;;;15.70;92.40;;;;;;4986274;28;20530;-63
2022/08/08 05:16:04;;;;;;;4.35;2.42;;;16.00;92.50;;;;;;4981032;28;20542;-63
2022/08/08 05:18:32;;;;;;;3.03;2.23;;;15.90;92.50;;;;;;4985182;28;20203;-63
2022/08/08 05:20:58;;;;;;;2.58;2.38;;;15.90;92.60;;;;;;4985813;28;20190;-60
2022/08/08 05:23:24;;;;;;;2.40;2.20;;;16.20;92.70;;;;;;4986949;28;20183;-61
2022/08/08 05:25:50;;;;;;;2.47;2.27;;;16.10;92.60;;;;;;4988158;28;20183;-61
2022/08/08 05:28:16;;;;;;;5.50;2.90;;;16.00;92.60;;;;;;4989025;28;20550;-61
2022/08/08 05:30:42;;;;;;;4.10;2.63;;;16.00;92.50;;;;;;4983839;28;20282;-61
2022/08/08 05:33:08;;;;;;;2.80;2.60;;;16.30;92.70;;;;;;4986837;28;20469;-61
2022/08/08 05:35:34;;;;;;;3.40;2.50;;;16.30;92.80;;;;;;4982969;28;20673;-62
2022/08/08 05:38:03;;;;;;;3.03;2.72;;;16.50;92.60;;;;;;4985869;28;20230;-61
2022/08/08 05:40:30;;;;;;;3.00;2.70;;;16.60;92.80;;;;;;4983896;28;20184;-61
2022/08/08 05:43:09;;;;;;;2.58;2.10;;;16.50;92.50;;;;;;4990432;28;20785;-61
2022/08/08 05:45:35;;;;;;;2.90;2.55;;;16.60;92.00;;;;;;4989533;28;20191;-61
2022/08/08 05:48:03;;;;;;;5.97;3.03;;;16.90;92.00;;;;;;4986361;28;20289;-61
2022/08/08 05:50:30;;;;;;;4.85;1.92;;;16.80;91.60;;;;;;4990195;28;20657;-61
2022/08/08 05:52:57;;;;;;;2.58;2.38;;;16.80;91.50;;;;;;4990139;28;20187;-61
2022/08/08 05:55:23;;;;;;;3.13;2.88;;;17.20;91.10;;;;;;4989707;28;20219;-62
2022/08/08 05:57:56;;;;;;;3.85;2.47;;;17.30;90.70;;;;;;4984816;28;21018;-61
2022/08/08 06:00:29;;;;;;;3.13;2.80;;;17.50;90.50;;;;;;4991721;28;20704;-61
2022/08/08 06:03:13;;;;;;;3.45;2.70;;;17.60;90.00;;;;;;4985415;28;20698;-61
2022/08/08 06:05:59;;;;;;;3.63;1.80;;;17.70;89.00;;;;;;4987583;28;20202;-62
2022/08/08 06:08:30;;;;;;;3.25;2.92;;;18.10;89.00;;;;;;4992879;28;20598;-63
2022/08/08 06:10:57;;;;;;;3.65;2.70;;;18.20;87.10;;;;;;4990131;28;20198;-65
2022/08/08 06:13:25;;;;;;;3.38;3.08;;;18.20;86.60;;;;;;4987410;28;20188;-61
2022/08/08 06:15:53;;;;;;;3.35;2.67;;;18.30;86.70;;;;;;4989415;28;20217;-63
2022/08/08 06:18:23;;;;;;;2.63;2.42;;;18.40;85.90;;;;;;4987372;28;20694;-67
2022/08/08 06:20:51;;;;;;;2.85;2.42;;;18.50;86.70;;;;;;4995184;28;20215;-67
2022/08/08 06:23:17;;;;;;;3.20;2.40;;;18.60;86.90;;;;;;4986491;28;20881;-62
2022/08/08 06:25:42;;;;;;;2.60;2.40;;;18.80;87.20;;;;;;4986998;28;20285;-64
2022/08/08 06:28:13;;;;;;;6.00;2.90;;;18.90;84.90;;;;;;4991637;28;20579;-67
2022/08/08 06:30:41;;;;;;;2.78;2.58;;;18.90;84.70;;;;;;4990918;28;20262;-65
2022/08/08 06:33:10;;;;;;;3.70;3.40;;;19.00;85.30;;;;;;4990991;28;20282;-62
2022/08/08 06:35:44;;;;;;;2.63;2.20;;;19.20;84.20;;;;;;4986532;28;20245;-60
2022/08/08 06:38:10;;;;;;;3.35;2.22;;;19.40;86.10;;;;;;4987514;28;20228;-62
2022/08/08 06:40:39;;;;;;;2.60;2.40;;;19.70;86.20;;;;;;4988507;28;20188;-66
2022/08/08 06:43:07;;;;;;;3.58;2.13;;;19.90;85.40;;;;;;4989966;28;20191;-62
2022/08/08 06:45:35;;;;;;;4.47;2.40;;;20.30;84.80;;;;;;4989247;28;20199;-60
2022/08/08 06:48:00;;;;;;;3.10;2.50;;;20.70;82.20;;;;;;4991016;28;20211;-63
2022/08/08 06:50:27;;;;;;;2.20;2.00;;;20.80;79.60;;;;;;4990507;28;20275;-64
2022/08/08 06:52:53;;;;;;;2.25;1.73;;;20.90;80.40;;;;;;4988074;28;20196;-63
2022/08/08 06:55:20;;;;;;;2.10;1.90;;;21.20;80.60;;;;;;4984558;28;20204;-64
2022/08/08 06:57:46;;;;;;;2.50;1.70;;;21.50;79.40;;;;;;4988251;28;20215;-66
2022/08/08 07:00:12;;;;;;;5.23;2.97;;;21.80;78.40;;;;;;4983279;28;20858;-67
2022/08/08 07:02:50;;;;;;;3.20;2.90;;;22.00;77.00;;;;;;4989647;28;20453;-70
2022/08/08 07:05:21;;;;;;;4.73;2.10;;;22.20;76.80;;;;;;4990636;28;20442;-66
2022/08/08 07:07:52;;;;;;;3.37;3.07;;;22.40;75.80;;;;;;4994347;28;20497;-63
2022/08/08 07:10:20;;;;;;;2.00;1.90;;;23.00;74.20;;;;;;4991259;28;20614;-64
2022/08/08 07:12:49;;;;;;;2.50;2.30;;;24.70;70.30;;;;;;4987469;28;20999;-57
2022/08/08 07:15:15;;;;;;;3.13;2.93;;;27.60;63.40;;;;;;4986799;28;20508;-56
2022/08/08 07:17:49;;;;;;;2.50;2.30;;;30.70;53.90;;;;;;4988818;28;20470;-57
2022/08/08 07:20:28;;;;;;;6.37;3.77;;;33.30;48.20;;;;;;4993140;28;20422;-57
2022/08/08 07:23:11;;;;;;;4.53;4.13;;;35.30;42.30;;;;;;4989724;28;20426;-57
2022/08/08 07:25:43;;;;;;;3.13;2.93;;;36.70;39.70;;;;;;4990221;28;20681;-57
2022/08/08 07:28:14;;;;;;;3.10;2.90;;;37.80;36.90;;;;;;4988592;28;20746;-65
2022/08/08 07:30:40;;;;;;;3.10;2.90;;;39.30;35.20;;;;;;4992294;28;20504;-69
2022/08/08 07:33:10;;;;;;;3.60;3.00;;;37.50;34.20;;;;;;4990668;28;20502;-68
2022/08/08 07:35:37;;;;;;;2.80;2.60;;;35.20;36.70;;;;;;4979736;28;20496;-72
2022/08/08 07:38:04;;;;;;;3.10;2.90;;;36.50;37.50;;;;;;4981800;28;20846;-74
2022/08/08 07:40:31;;;;;;;3.60;3.10;;;37.50;35.50;;;;;;4988504;28;20790;-72
2022/08/08 07:42:57;;;;;;;4.63;3.20;;;38.40;35.20;;;;;;4989506;28;20445;-73
2022/08/08 07:45:23;;;;;;;4.03;3.23;;;38.80;34.30;;;;;;4987737;28;20851;-73
2022/08/08 07:47:51;;;;;;;3.17;2.97;;;39.60;33.70;;;;;;4988635;28;20458;-71
2022/08/08 07:50:17;;;;;;;3.60;3.30;;;40.40;32.40;;;;;;4989262;28;20183;-69
2022/08/08 07:52:48;;;;;;;3.33;3.13;;;41.40;31.00;;;;;;4989090;28;20496;-72
2022/08/08 07:55:25;;;;;;;3.00;2.80;;;41.00;30.90;;;;;;4982600;28;20547;-74
2022/08/08 07:57:57;;;;;;;3.10;2.90;;;40.50;31.50;;;;;;4986070;28;20999;-73
2022/08/08 08:00:28;;;;;;;4.13;3.27;;;41.70;30.50;;;;;;4991540;28;20571;-73
2022/08/08 08:03:12;;;;;;;3.53;3.23;;;41.90;30.00;;;;;;5000526;28;20473;-70
2022/08/08 08:05:46;;;;;;;3.67;3.37;;;42.30;29.30;;;;;;4988729;28;20465;-72
2022/08/08 08:08:17;;;;;;;4.00;3.70;;;42.90;29.10;;;;;;4988091;28;20469;-72
2022/08/08 08:10:45;;;;;;;3.83;3.43;;;42.40;29.10;;;;;;4990101;28;20817;-72
2022/08/08 08:13:24;;;;;;;8.30;3.67;;;42.10;28.90;;;;;;4985507;28;20467;-72
2022/08/08 08:16:08;;;;;;;4.07;3.77;;;42.00;29.30;;;;;;4988941;28;20516;-73
2022/08/08 08:18:42;;;;;;;5.60;3.43;;;41.70;29.20;;;;;;4994636;28;20514;-71
2022/08/08 08:21:09;;;;;;;3.90;3.70;;;42.00;29.20;;;;;;4979572;28;20439;-69
2022/08/08 08:23:36;;;;;;;3.33;3.07;;;40.10;30.00;;;;;;4986353;28;20930;-71
2022/08/08 08:26:02;;;;;;;2.93;2.70;;;39.20;30.80;;;;;;4988484;28;20440;-71
2022/08/08 08:28:27;;;;;;;3.43;3.13;;;39.40;30.80;;;;;;4987747;28;20823;-71
2022/08/08 08:30:54;;;;;;;2.93;2.73;;;39.80;30.00;;;;;;4988813;28;20446;-72
2022/08/08 08:33:20;;;;;;;3.10;2.80;;;39.60;30.30;;;;;;4988791;28;20203;-65
2022/08/08 08:35:46;;;;;;;2.43;2.33;;;39.70;30.30;;;;;;4989585;28;20995;-66
2022/08/08 08:38:12;;;;;;;3.00;2.80;;;39.80;30.20;;;;;;4988991;28;20501;-72
2022/08/08 08:40:38;;;;;;;3.97;2.80;;;39.70;30.50;;;;;;4988945;28;20434;-72
2022/08/08 08:43:09;;;;;;;3.47;2.87;;;40.50;30.10;;;;;;4985907;28;20171;-72
2022/08/08 08:45:43;;;;;;;3.33;3.03;;;40.50;29.30;;;;;;4988543;28;20191;-73
2022/08/08 08:48:10;;;;;;;2.90;2.70;;;39.70;30.60;;;;;;4988845;28;20462;-71
2022/08/08 08:50:36;;;;;;;3.17;2.80;;;40.10;30.00;;;;;;4985500;28;20469;-70
2022/08/08 08:53:10;;;;;;;3.13;2.63;;;40.90;29.50;;;;;;4988373;28;20481;-73
2022/08/08 08:55:38;;;;;;;3.57;2.80;;;40.90;29.30;;;;;;4989508;28;20458;-71
2022/08/08 08:58:06;;;;;;;4.83;3.43;;;40.40;29.10;;;;;;4989255;28;20463;-71
2022/08/08 09:00:35;;;;;;;3.30;3.00;;;41.40;29.00;;;;;;4989785;28;20438;-71
2022/08/08 09:03:07;;;;;;;4.13;3.10;;;41.80;28.20;;;;;;4988594;28;20438;-71
2022/08/08 09:05:39;;;;;;;3.20;3.00;;;41.60;28.40;;;;;;4989860;28;20434;-70
2022/08/08 09:08:06;;;;;;;3.13;2.93;;;40.20;29.60;;;;;;4988678;28;20788;-71
2022/08/08 09:10:36;;;;;;;3.60;3.30;;;40.30;29.10;;;;;;4990235;28;20426;-70
2022/08/08 09:13:03;;;;;;;3.30;3.00;;;41.10;29.00;;;;;;4989876;28;20438;-71
2022/08/08 09:15:30;;;;;;;4.00;3.20;;;41.00;29.00;;;;;;4988472;28;20462;-71
2022/08/08 09:17:57;;;;;;;7.20;3.60;;;40.00;29.70;;;;;;4993534;28;20921;-71
2022/08/08 09:20:25;;;;;;;3.87;3.57;;;40.10;29.30;;;;;;4992099;28;20532;-72
2022/08/08 09:22:52;;;;;;;3.63;3.33;;;41.00;29.30;;;;;;4981656;28;20852;-72
2022/08/08 09:25:18;;;;;;;3.83;3.13;;;39.40;28.70;;;;;;4992455;28;20442;-72
2022/08/08 09:27:44;;;;;;;4.50;4.10;;;39.30;30.30;;;;;;4991238;28;20720;-72
2022/08/08 09:30:13;;;;;;;5.10;3.50;;;39.90;29.50;;;;;;4992457;28;20195;-71
2022/08/08 09:32:48;;;;;;;2.80;2.60;;;40.10;29.20;;;;;;4989074;28;20454;-72
2022/08/08 09:35:21;;;;;;;2.97;2.73;;;39.30;28.40;;;;;;4997350;28;20574;-71
2022/08/08 09:37:50;;;;;;;2.90;2.70;;;39.50;29.20;;;;;;4980685;28;20853;-72
2022/08/08 09:40:18;;;;;;;2.73;2.57;;;39.00;29.10;;;;;;4993528;28;20436;-72
2022/08/08 09:43:11;;;;;;;3.17;2.97;;;38.40;29.80;;;;;;4991784;28;20431;-71
2022/08/08 09:45:45;;;;;;;2.80;2.60;;;38.00;30.50;;;;;;4976747;28;20955;-71
2022/08/08 09:48:12;;;;;;;3.27;3.07;;;37.50;31.40;;;;;;4991406;28;20458;-71
2022/08/08 09:50:39;;;;;;;4.80;4.50;;;37.10;31.50;;;;;;4992543;28;20951;-71
2022/08/08 09:53:09;;;;;;;2.87;2.77;;;35.80;32.80;;;;;;4991926;28;20470;-72
2022/08/08 09:55:36;;;;;;;3.27;2.87;;;35.40;33.10;;;;;;4992228;28;20482;-71
2022/08/08 09:58:06;;;;;;;3.37;3.07;;;34.60;33.30;;;;;;4991257;28;20461;-72
2022/08/08 10:00:36;;;;;;;6.47;5.87;;;34.90;33.50;;;;;;4977804;28;20927;-71
2022/08/08 10:03:04;;;;;;;3.37;2.80;;;34.70;32.70;;;;;;4987015;28;20855;-72
2022/08/08 10:05:34;;;;;;;2.53;2.40;;;34.20;32.60;;;;;;4991388;28;20443;-72
2022/08/08 10:08:01;;;;;;;2.80;2.60;;;35.10;33.10;;;;;;4991042;28;20880;-71
2022/08/08 10:10:38;;;;;;;2.30;2.20;;;35.70;30.20;;;;;;4992869;28;20435;-70
2022/08/08 10:13:19;;;;;;;2.80;2.60;;;35.30;30.90;;;;;;4992657;28;20533;-71
2022/08/08 10:15:47;;;;;;;2.47;2.37;;;34.50;32.00;;;;;;4982292;28;20466;-73
2022/08/08 10:18:26;;;;;;;3.77;2.87;;;34.20;32.70;;;;;;4997816;28;20982;-71
2022/08/08 10:20:57;;;;;;;2.70;2.20;;;33.30;33.50;;;;;;4992535;28;20427;-72
2022/08/08 10:23:48;;;;;;;3.80;2.30;;;32.80;34.80;;;;;;4981661;28;20433;-70
2022/08/08 10:26:27;;;;;;;3.10;2.80;;;32.10;35.70;;;;;;4992183;28;20445;-70
2022/08/08 10:29:04;;;;;;;3.37;3.17;;;31.50;37.40;;;;;;4992245;28;20460;-71
2022/08/08 10:34:18;;;;;;;2.77;2.60;;;30.70;39.20;;;;;;4989206;28;20928;-71
2022/08/08 10:36:44;;;;;;;3.40;3.20;;;30.60;39.70;;;;;;4980577;28;20989;-70
2022/08/08 10:39:17;;;;;;;3.67;3.40;;;30.60;40.80;;;;;;4991181;28;20452;-70
2022/08/08 10:41:53;;;;;;;3.00;2.80;;;30.50;40.40;;;;;;4982780;28;20522;-71
2022/08/08 10:44:43;;;;;;;3.90;3.60;;;30.30;41.40;;;;;;4988290;28;20447;-70
2022/08/08 10:47:17;;;;;;;3.53;3.33;;;30.40;41.70;;;;;;4989146;28;20794;-71
2022/08/08 10:49:50;;;;;;;3.20;3.00;;;30.10;41.90;;;;;;4991856;28;20450;-70
2022/08/08 10:52:33;;;;;;;3.47;3.27;;;30.40;41.90;;;;;;4987632;28;20446;-70
2022/08/08 10:55:07;;;;;;;4.30;3.03;;;30.30;41.30;;;;;;4989720;28;20466;-71
2022/08/08 10:57:37;;;;;;;3.13;2.93;;;30.00;42.00;;;;;;4990075;28;20464;-71
2022/08/08 11:00:04;;;;;;;3.30;3.10;;;29.60;41.70;;;;;;4989864;28;20449;-71
2022/08/08 11:02:31;;;;;;;3.43;3.23;;;30.10;41.80;;;;;;4990185;28;20994;-71
2022/08/08 11:04:59;;;;;;;2.90;2.70;;;29.10;42.10;;;;;;4989847;28;20981;-71
2022/08/08 11:07:46;;;;;;;3.30;3.00;;;29.10;40.90;;;;;;4990279;28;20561;-70
2022/08/08 11:10:15;;;;;;;3.00;2.80;;;29.10;40.90;;;;;;4991313;28;20471;-71
2022/08/08 11:12:49;;;;;;;2.70;2.50;;;29.20;40.90;;;;;;4990996;28;20489;-70
2022/08/08 11:15:20;;;;;;;2.70;2.50;;;29.60;40.40;;;;;;4988196;28;20465;-71
2022/08/08 11:17:47;;;;;;;2.70;2.60;;;30.00;39.40;;;;;;4987256;28;20826;-71
2022/08/08 11:20:31;;;;;;;3.47;3.27;;;30.40;38.50;;;;;;4991368;28;20446;-71
2022/08/08 11:22:59;;;;;;;3.40;3.07;;;30.90;38.00;;;;;;4990035;28;20588;-69
2022/08/08 11:25:27;;;;;;;3.50;3.30;;;31.30;38.20;;;;;;4991296;28;20430;-70
2022/08/08 11:27:58;;;;;;;3.00;2.80;;;31.30;37.90;;;;;;4990676;28;20958;-69
2022/08/08 11:30:27;;;;;;;3.30;3.07;;;31.40;37.40;;;;;;4991376;28;20445;-71
2022/08/08 11:33:00;;;;;;;2.90;2.60;;;30.80;38.30;;;;;;4981711;28;20452;-70
2022/08/08 11:35:26;;;;;;;2.50;2.40;;;31.40;37.20;;;;;;4985834;28;21036;-60
2022/08/08 11:37:51;;;;;;;2.80;2.60;;;31.90;36.10;;;;;;4987397;28;20467;-62
2022/08/08 11:40:17;;;;;;;2.57;1.80;;;32.70;34.80;;;;;;4986506;28;20838;-69
2022/08/08 11:42:44;;;;;;;2.23;2.00;;;33.60;32.90;;;;;;4988513;28;20179;-69
2022/08/08 11:45:11;;;;;;;1.93;1.83;;;34.00;31.60;;;;;;4983738;28;20237;-70
2022/08/08 11:47:38;;;;;;;2.37;2.17;;;34.80;30.70;;;;;;4987782;28;20469;-69
2022/08/08 11:50:11;;;;;;;2.50;1.90;;;35.40;30.00;;;;;;4987174;28;20813;-69
2022/08/08 11:52:38;;;;;;;2.27;2.10;;;34.80;30.00;;;;;;4987694;28;20533;-69
2022/08/08 11:55:18;;;;;;;2.30;2.10;;;34.90;30.20;;;;;;4988612;28;20963;-70
2022/08/08 11:57:44;;;;;;;2.30;2.20;;;35.00;30.10;;;;;;4987272;28;20462;-69
2022/08/08 12:00:16;;;;;;;2.40;2.20;;;34.00;30.80;;;;;;4989021;28;20443;-69
2022/08/08 12:02:53;;;;;;;2.50;2.30;;;33.60;31.20;;;;;;4984644;28;20959;-69
2022/08/08 12:05:29;;;;;;;2.40;2.30;;;32.80;32.20;;;;;;4990315;28;20858;-69
2022/08/08 12:07:55;;;;;;;3.10;2.40;;;32.40;33.40;;;;;;4986134;28;20489;-69
2022/08/08 12:10:23;;;;;;;2.13;1.93;;;32.10;33.30;;;;;;4987354;28;20895;-68
2022/08/08 12:12:58;;;;;;;2.63;2.43;;;31.50;33.60;;;;;;4988998;28;20449;-75
2022/08/08 12:15:29;;;;;;;2.50;2.30;;;31.10;34.30;;;;;;4986362;28;20568;-77
2022/08/08 12:17:55;;;;;;;2.53;2.43;;;30.70;34.10;;;;;;4990286;28;20459;-77
2022/08/08 12:20:21;;;;;;;2.20;2.10;;;30.50;34.50;;;;;;4984539;28;20462;-72
2022/08/08 12:22:51;;;;;;;3.50;2.20;;;30.40;35.00;;;;;;4988500;28;20266;-69
2022/08/08 12:25:25;;;;;;;2.20;2.10;;;30.40;35.80;;;;;;4987488;28;20179;-69
2022/08/08 12:27:52;;;;;;;2.60;2.40;;;30.00;35.70;;;;;;4985719;28;20463;-61
2022/08/08 12:30:39;;;;;;;2.20;2.10;;;29.90;36.10;;;;;;4981014;28;20442;-64
2022/08/08 12:33:15;;;;;;;2.50;2.30;;;29.80;36.50;;;;;;4985578;28;20478;-62
2022/08/08 12:35:42;;;;;;;2.40;2.30;;;29.70;36.80;;;;;;4988901;28;20560;-62
2022/08/08 12:38:08;;;;;;;2.30;2.20;;;29.60;37.10;;;;;;4988282;28;20519;-61
2022/08/08 12:40:47;;;;;;;2.17;2.03;;;29.80;37.30;;;;;;4987390;28;20947;-63
2022/08/08 12:43:14;;;;;;;2.10;2.00;;;29.80;36.90;;;;;;4991741;28;20490;-68
2022/08/08 12:45:43;;;;;;;2.60;2.40;;;29.80;36.30;;;;;;4984774;28;21003;-76
2022/08/08 12:48:20;;;;;;;2.80;2.60;;;29.80;37.00;;;;;;4989842;28;20489;-77
2022/08/08 12:50:49;;;;;;;2.30;2.20;;;29.80;36.80;;;;;;5009488;28;20453;-78
2022/08/08 12:53:24;;;;;;;4.30;3.10;;;30.00;36.80;;;;;;4994615;28;20453;-69
2022/08/08 12:56:10;;;;;;;2.93;2.30;;;30.10;36.70;;;;;;4989131;28;20836;-70
2022/08/08 12:58:49;;;;;;;3.00;2.40;;;30.20;36.50;;;;;;4991603;28;20459;-67
2022/08/08 13:01:14;;;;;;;4.83;2.70;;;30.10;36.90;;;;;;4989334;28;20442;-67
2022/08/08 13:03:48;;;;;;;2.30;2.20;;;30.00;36.70;;;;;;4988361;28;20454;-70
2022/08/08 13:06:16;;;;;;;2.50;2.30;;;29.90;37.10;;;;;;4990945;28;20191;-73
2022/08/08 13:08:50;;;;;;;4.10;3.40;;;30.00;37.50;;;;;;4989992;28;20527;-72
2022/08/08 13:11:22;;;;;;;2.90;2.80;;;29.90;37.40;;;;;;4993304;28;20803;-72
2022/08/08 13:14:11;;;;;;;2.90;2.70;;;30.00;37.10;;;;;;4991632;28;20441;-70
2022/08/08 13:16:38;;;;;;;2.83;2.63;;;30.00;37.30;;;;;;4988546;28;20957;-71
2022/08/08 13:19:06;;;;;;;2.80;2.70;;;30.10;36.80;;;;;;4993525;28;20457;-77
2022/08/08 13:21:33;;;;;;;2.60;2.40;;;30.10;36.90;;;;;;4990848;28;20793;-77
2022/08/08 13:23:58;;;;;;;2.33;2.13;;;30.10;36.20;;;;;;4987533;28;20768;-74
2022/08/08 13:26:30;;;;;;;2.43;2.23;;;30.10;36.10;;;;;;4991435;28;20442;-70
2022/08/08 13:28:57;;;;;;;2.87;2.67;;;30.10;36.40;;;;;;4991927;28;20234;-70
2022/08/08 13:31:23;;;;;;;2.50;2.07;;;30.00;36.30;;;;;;4987391;28;20966;-66